Time;durP1;ratioP1;P1;durP2;ratioP2;P2;SDS_P1;SDS_P2;PMS_P1;PMS_P2;Temp;Humidity;BMP_temperature;BMP_pressure;BME280_temperature;BME280_humidity;BME280_pressure;Samples;Min_cycle;Max_cycle;Signal;HPM_P1;HPM_P2
2021/03/14 05:02:18;;;;;;;;;;;4.40;99.90;;;;;;5155323;22;20017;-65
2021/03/14 05:04:44;;;;;;;;;;;4.40;99.90;;;;;;5015477;28;20407;-65
2021/03/14 05:07:11;;;;;;;;;;;4.50;99.90;;;;;;5015064;28;20391;-64
2021/03/14 05:09:38;;;;;;;;;;;4.40;99.90;;;;;;5039011;22;19952;-65
2021/03/14 05:12:05;;;;;;;;;;;4.30;99.90;;;;;;5015446;28;20368;-66
2021/03/14 05:14:32;;;;;;;;;;;4.30;99.90;;;;;;5015785;28;19960;-66
2021/03/14 05:16:58;;;;;;;;;;;4.40;99.90;;;;;;5017065;28;19992;-66
2021/03/14 05:19:25;;;;;;;;;;;4.40;99.90;;;;;;5017028;28;19926;-66
2021/03/14 05:21:51;;;;;;;;;;;4.40;99.90;;;;;;5016301;28;19926;-66
2021/03/14 05:24:17;;;;;;;;;;;4.30;99.90;;;;;;5017690;28;20308;-66
2021/03/14 05:26:44;;;;;;;;;;;4.30;99.90;;;;;;5017058;28;19929;-66
2021/03/14 05:29:11;;;;;;;;;;;4.30;99.90;;;;;;5017121;28;19926;-65
2021/03/14 05:31:37;;;;;;;;;;;4.30;99.90;;;;;;5017212;28;19932;-66
2021/03/14 05:34:04;;;;;;;;;;;4.30;99.90;;;;;;5018301;28;19949;-66
2021/03/14 05:36:32;;;;;;;;;;;4.30;99.90;;;;;;5018857;28;19926;-65
2021/03/14 05:38:58;;;;;;;;;;;4.30;99.90;;;;;;5018073;28;19932;-66
2021/03/14 05:41:25;;;;;;;;;;;4.30;99.90;;;;;;5014682;28;19925;-66
2021/03/14 05:43:51;;;;;;;;;;;4.40;99.90;;;;;;5014801;28;19949;-66
2021/03/14 05:46:17;;;;;;;;;;;4.40;99.90;;;;;;5016213;28;19934;-66
2021/03/14 05:48:43;;;;;;;;;;;4.40;99.90;;;;;;5022118;28;19926;-66
2021/03/14 05:51:10;;;;;;;;;;;4.40;99.90;;;;;;5021214;28;20003;-65
2021/03/14 05:53:38;;;;;;;;;;;4.40;99.90;;;;;;5018745;28;19925;-65
2021/03/14 05:56:05;;;;;;;;;;;4.40;99.90;;;;;;5015736;28;20360;-65
2021/03/14 05:58:32;;;;;;;;;;;4.30;99.90;;;;;;5015048;28;19948;-65
2021/03/14 06:00:59;;;;;;;;;;;4.30;99.90;;;;;;5014583;28;19925;-65
2021/03/14 06:03:26;;;;;;;;;;;4.30;99.90;;;;;;5014295;28;19925;-65
2021/03/14 06:05:52;;;;;;;;;;;4.30;99.90;;;;;;5014810;28;19926;-67
2021/03/14 06:08:19;;;;;;;;;;;4.30;99.90;;;;;;5014550;28;19929;-67
2021/03/14 06:10:45;;;;;;;;;;;4.40;99.90;;;;;;5014440;28;19925;-65
2021/03/14 06:13:11;;;;;;;;;;;4.30;99.90;;;;;;5014377;28;19925;-66
2021/03/14 06:15:37;;;;;;;;;;;4.40;99.90;;;;;;5014931;28;20430;-67
2021/03/14 06:18:05;;;;;;;;;;;4.40;99.90;;;;;;5014175;28;20261;-68
2021/03/14 06:20:36;;;;;;;;;;;4.50;99.90;;;;;;5014542;28;19933;-66
2021/03/14 06:23:06;;;;;;;;;;;4.50;99.90;;;;;;5014512;28;19949;-66
2021/03/14 06:25:32;;;;;;;;;;;4.50;99.90;;;;;;5014119;28;19925;-66
2021/03/14 06:27:59;;;;;;;;;;;4.50;99.90;;;;;;5013848;28;19925;-66
2021/03/14 06:30:25;;;;;;;;;;;4.50;99.90;;;;;;5013523;28;19932;-67
2021/03/14 06:33:02;;;;;;;;;;;4.50;99.90;;;;;;5014126;28;19925;-66
2021/03/14 06:35:36;;;;;;;;;;;4.60;99.90;;;;;;5014113;28;19926;-66
2021/03/14 06:38:16;;;;;;;;;;;4.60;99.90;;;;;;5014256;28;19925;-66
2021/03/14 06:40:42;;;;;;;;;;;4.60;99.90;;;;;;5013479;28;19944;-66
2021/03/14 06:43:11;;;;;;;;;;;4.60;99.90;;;;;;5013600;28;20384;-66
2021/03/14 06:45:38;;;;;;;;;;;4.60;99.90;;;;;;5013831;28;19953;-66
2021/03/14 06:48:05;;;;;;;;;;;4.70;99.90;;;;;;5013898;28;19925;-66
2021/03/14 18:26:18;;;;;;;;;;;2.90;99.90;;;;;;5114629;27;19912;-63
2021/03/14 18:28:44;;;;;;;;;;;2.90;99.90;;;;;;5113774;28;19949;-61
2021/03/14 18:31:10;;;;;;;;;;;3.20;99.90;;;;;;5112764;28;19928;-64
2021/03/14 18:33:36;;;;;;;;;;;3.40;99.90;;;;;;5112455;28;19924;-64
2021/03/14 18:36:03;;;;;;;;;;;3.60;99.90;;;;;;5112631;28;19924;-62
2021/03/14 18:38:29;;;;;;;;;;;3.80;99.90;;;;;;5112629;28;19974;-64
2021/03/14 18:40:55;;;;;;;;;;;3.90;99.90;;;;;;5112555;28;19931;-62
2021/03/14 18:43:22;;;;;;;;;;;4.00;99.90;;;;;;5112690;28;19932;-63
2021/03/14 18:45:48;;;;;;;;;;;4.10;99.90;;;;;;5111805;28;20393;-63
2021/03/14 18:48:14;;;;;;;;;;;4.10;99.90;;;;;;5112323;28;19947;-64
2021/03/14 18:50:40;;;;;;;;;;;4.20;99.90;;;;;;5112575;28;19924;-63
2021/03/14 18:53:06;;;;;;;;;;;4.20;99.90;;;;;;5112654;28;20264;-64
2021/03/14 18:55:32;;;;;;;;;;;4.20;99.90;;;;;;5111916;28;19924;-63
2021/03/14 18:57:59;;;;;;;;;;;4.20;99.90;;;;;;5111972;28;19924;-64
2021/03/14 19:00:26;;;;;;;;;;;4.20;99.90;;;;;;5112283;28;19932;-63
2021/03/14 19:02:52;;;;;;;;;;;4.20;99.90;;;;;;5111892;28;20369;-63
2021/03/14 19:05:18;;;;;;;;;;;4.20;99.90;;;;;;5111872;28;19924;-63
2021/03/14 19:07:45;;;;;;;;;;;4.20;99.90;;;;;;5111802;28;19931;-63
2021/03/14 19:10:11;;;;;;;;;;;4.20;99.90;;;;;;5111799;28;19924;-63
2021/03/14 19:12:37;;;;;;;;;;;4.20;99.90;;;;;;5114714;28;19928;-64
2021/03/14 19:15:04;;;;;;;;;;;4.30;99.90;;;;;;5116942;28;19931;-64
2021/03/14 19:17:31;;;;;;;;;;;4.40;99.90;;;;;;5117681;28;19970;-62
2021/03/14 19:19:57;;;;;;;;;;;4.40;99.90;;;;;;5111803;28;19924;-62
2021/03/14 19:22:24;;;;;;;;;;;4.40;99.90;;;;;;5111707;28;20439;-64
2021/03/14 19:24:50;;;;;;;;;;;4.40;99.90;;;;;;5120023;28;19931;-63
2021/03/14 19:27:16;;;;;;;;;;;4.50;99.90;;;;;;5132570;28;19931;-64
2021/03/14 19:29:42;;;;;;;;;;;4.50;99.90;;;;;;5132599;28;19930;-63
2021/03/14 19:32:08;;;;;;;;;;;4.50;99.90;;;;;;5133089;28;19931;-65
2021/03/14 19:34:35;;;;;;;;;;;4.50;99.90;;;;;;5132915;28;19924;-64
2021/03/14 19:37:01;;;;;;;;;;;4.60;99.90;;;;;;5122343;28;20432;-64
2021/03/14 19:39:27;;;;;;;;;;;4.60;99.90;;;;;;5119816;28;19931;-63
2021/03/14 19:41:53;;;;;;;;;;;4.60;99.90;;;;;;5122853;28;20404;-63
2021/03/14 19:44:19;;;;;;;;;;;4.60;99.90;;;;;;5121442;28;19934;-63
2021/03/14 19:46:45;;;;;;;;;;;4.70;99.90;;;;;;5120528;28;19969;-64
2021/03/14 19:49:11;;;;;;;;;;;4.70;99.90;;;;;;5118461;28;19928;-63
2021/03/14 19:51:38;;;;;;;;;;;4.80;99.90;;;;;;5117758;28;20378;-63
2021/03/14 19:54:05;;;;;;;;;;;4.90;99.90;;;;;;5118971;28;19931;-65
2021/03/14 19:56:31;;;;;;;;;;;4.90;99.90;;;;;;5118265;28;19924;-64
2021/03/14 19:58:57;;;;;;;;;;;5.00;99.90;;;;;;5118415;28;19923;-62
2021/03/14 20:01:23;;;;;;;;;;;5.00;99.90;;;;;;5118838;28;20274;-64
2021/03/14 20:03:49;;;;;;;;;;;5.10;99.90;;;;;;5117452;28;20270;-64
2021/03/14 20:06:15;;;;;;;;;;;5.10;99.90;;;;;;5117740;28;19977;-64
2021/03/14 20:08:42;;;;;;;;;;;5.00;99.90;;;;;;5117898;28;19923;-63
2021/03/14 20:11:08;;;;;;;;;;;5.00;99.90;;;;;;5118147;28;19924;-63
2021/03/14 20:13:39;;;;;;;;;;;4.90;99.90;;;;;;5118346;28;19924;-61
2021/03/14 20:16:05;;;;;;;;;;;4.90;99.90;;;;;;5118961;28;20015;-62
2021/03/14 20:18:31;;;;;;;;;;;4.80;99.90;;;;;;5119179;28;19927;-63
2021/03/14 20:20:57;;;;;;;;;;;4.80;99.90;;;;;;5119511;28;20409;-63
2021/03/14 20:23:24;;;;;;;;;;;4.70;99.90;;;;;;5119145;28;20342;-65
2021/03/14 20:25:51;;;;;;;;;;;4.80;99.90;;;;;;5117204;28;19935;-63
2021/03/14 20:28:17;;;;;;;;;;;4.80;99.90;;;;;;5117618;28;19977;-64
2021/03/14 20:30:43;;;;;;;;;;;4.80;99.90;;;;;;5117180;28;19931;-62
2021/03/14 20:33:09;;;;;;;;;;;4.80;99.90;;;;;;5116840;28;19924;-64
2021/03/14 20:35:35;;;;;;;;;;;4.80;99.90;;;;;;5117288;28;19962;-64
2021/03/14 20:38:02;;;;;;;;;;;4.80;99.90;;;;;;5117193;28;19930;-62
2021/03/14 20:40:28;;;;;;;;;;;4.80;99.90;;;;;;5117432;28;19931;-64
2021/03/14 20:42:55;;;;;;;;;;;4.90;99.90;;;;;;5117283;28;20390;-64
2021/03/14 20:45:21;;;;;;;;;;;4.90;99.90;;;;;;5117555;28;19947;-64
2021/03/14 20:47:47;;;;;;;;;;;5.00;99.90;;;;;;5116419;28;19924;-65
2021/03/14 20:50:14;;;;;;;;;;;5.00;99.90;;;;;;5116965;28;19924;-65
2021/03/14 20:52:40;;;;;;;;;;;5.10;99.90;;;;;;5116671;28;19953;-64
2021/03/14 20:55:06;;;;;;;;;;;5.10;99.90;;;;;;5116426;28;19932;-66
2021/03/14 20:57:33;;;;;;;;;;;5.10;99.90;;;;;;5116270;28;19947;-63
2021/03/14 20:59:59;;;;;;;;;;;5.20;99.90;;;;;;5116760;28;19924;-64
2021/03/14 21:02:26;;;;;;;;;;;5.20;99.90;;;;;;5116325;28;20289;-65
2021/03/14 21:04:52;;;;;;;;;;;5.20;99.90;;;;;;5116276;28;19924;-64
2021/03/14 21:07:18;;;;;;;;;;;5.30;99.90;;;;;;5116780;28;19931;-64
2021/03/14 21:09:44;;;;;;;;;;;5.30;99.90;;;;;;5116946;28;19924;-65
2021/03/14 21:12:10;;;;;;;;;;;5.30;99.90;;;;;;5116131;28;19928;-65
2021/03/14 21:14:36;;;;;;;;;;;5.30;99.90;;;;;;5117869;28;19949;-65
2021/03/14 21:17:03;;;;;;;;;;;5.40;99.90;;;;;;5116399;28;19931;-63
2021/03/14 21:19:30;;;;;;;;;;;5.40;99.90;;;;;;5116696;28;19924;-66
2021/03/14 21:21:56;;;;;;;;;;;5.40;99.90;;;;;;5116173;28;19923;-63
2021/03/14 21:24:23;;;;;;;;;;;5.40;99.90;;;;;;5115589;28;19977;-63
2021/03/14 21:26:49;;;;;;;;;;;5.50;99.90;;;;;;5116601;28;19924;-64
2021/03/14 21:29:15;;;;;;;;;;;5.40;99.90;;;;;;5116655;28;19930;-64
2021/03/14 21:31:41;;;;;;;;;;;5.40;99.90;;;;;;5116258;28;19924;-64
2021/03/14 21:34:08;;;;;;;;;;;5.50;99.90;;;;;;5116176;28;19924;-64
2021/03/14 21:36:34;;;;;;;;;;;5.40;99.90;;;;;;5116489;28;20293;-63
2021/03/14 21:39:00;;;;;;;;;;;5.40;99.90;;;;;;5116950;28;19934;-63
2021/03/14 21:41:26;;;;;;;;;;;5.40;99.90;;;;;;5116053;28;19923;-63
2021/03/14 21:43:53;;;;;;;;;;;5.30;99.90;;;;;;5115873;28;19923;-63
2021/03/14 21:46:19;;;;;;;;;;;5.30;99.90;;;;;;5115860;28;20289;-63
2021/03/14 21:48:45;;;;;;;;;;;5.30;99.90;;;;;;5115727;28;19973;-64
2021/03/14 21:51:12;;;;;;;;;;;5.20;99.90;;;;;;5116071;28;19924;-63
2021/03/14 21:53:38;;;;;;;;;;;5.20;99.90;;;;;;5116623;28;19923;-64
2021/03/14 21:56:04;;;;;;;;;;;5.20;99.90;;;;;;5115210;28;19924;-65
2021/03/14 21:58:30;;;;;;;;;;;5.20;99.90;;;;;;5115749;28;19927;-63
2021/03/14 22:00:57;;;;;;;;;;;5.10;99.90;;;;;;5116142;28;19930;-64
2021/03/14 22:03:24;;;;;;;;;;;5.10;99.90;;;;;;5116374;28;20410;-64
2021/03/14 22:05:50;;;;;;;;;;;5.10;99.90;;;;;;5116230;28;19924;-64
2021/03/14 22:08:17;;;;;;;;;;;5.10;99.90;;;;;;5115770;28;20302;-65
2021/03/14 22:10:43;;;;;;;;;;;5.10;99.90;;;;;;5115809;28;20514;-64
2021/03/14 22:13:09;;;;;;;;;;;5.10;99.90;;;;;;5116475;28;20313;-64
2021/03/14 22:15:35;;;;;;;;;;;5.10;99.90;;;;;;5115921;28;19924;-65
2021/03/14 22:18:01;;;;;;;;;;;5.10;99.90;;;;;;5115791;28;19930;-64
2021/03/14 22:20:27;;;;;;;;;;;5.00;99.90;;;;;;5116697;28;19931;-64
2021/03/14 22:22:53;;;;;;;;;;;5.00;99.90;;;;;;5116487;28;19924;-65
2021/03/14 22:25:20;;;;;;;;;;;5.00;99.90;;;;;;5116376;28;19923;-65
2021/03/14 22:27:46;;;;;;;;;;;5.00;99.90;;;;;;5115211;28;19928;-63
2021/03/14 22:30:13;;;;;;;;;;;5.00;99.90;;;;;;5114776;28;19924;-63
2021/03/14 22:32:39;;;;;;;;;;;5.00;99.90;;;;;;5114643;28;20015;-63
2021/03/14 22:35:06;;;;;;;;;;;5.00;99.90;;;;;;5114332;28;19923;-63
2021/03/14 22:37:32;;;;;;;;;;;5.00;99.90;;;;;;5114195;28;20382;-64
2021/03/14 22:39:58;;;;;;;;;;;5.00;99.90;;;;;;5114967;28;19930;-63
2021/03/14 22:42:26;;;;;;;;;;;5.10;99.90;;;;;;5115106;28;19969;-62
2021/03/14 22:44:52;;;;;;;;;;;5.10;99.90;;;;;;5114916;28;19931;-63
2021/03/14 22:47:18;;;;;;;;;;;5.10;99.90;;;;;;5115512;28;19924;-63
2021/03/14 22:49:44;;;;;;;;;;;5.00;99.90;;;;;;5115005;28;19924;-65
2021/03/14 22:52:10;;;;;;;;;;;5.10;99.90;;;;;;5114605;28;20016;-64
2021/03/14 22:54:36;;;;;;;;;;;5.10;99.90;;;;;;5114507;28;19924;-64
2021/03/14 22:57:02;;;;;;;;;;;5.10;99.90;;;;;;5114386;28;19924;-64
2021/03/14 22:59:29;;;;;;;;;;;5.10;99.90;;;;;;5114314;28;19924;-66
2021/03/14 23:04:30;;;;;;;;;;;5.10;99.90;;;;;;5054653;22;20366;-67
2021/03/14 23:06:56;;;;;;;;;;;5.10;99.90;;;;;;5054441;28;19928;-68
2021/03/14 23:09:23;;;;;;;;;;;5.10;99.90;;;;;;5054439;28;19929;-68
2021/03/14 23:11:49;;;;;;;;;;;5.10;99.90;;;;;;5055463;28;19974;-68
2021/03/14 23:14:15;;;;;;;;;;;5.10;99.90;;;;;;5057751;28;19928;-67
2021/03/14 23:16:42;;;;;;;;;;;5.10;99.90;;;;;;5058348;28;19925;-68
2021/03/14 23:19:08;;;;;;;;;;;5.00;99.90;;;;;;5058705;28;19925;-67
2021/03/14 23:21:35;;;;;;;;;;;5.00;99.90;;;;;;5058810;28;19933;-67
2021/03/14 23:24:03;;;;;;;;;;;5.00;99.90;;;;;;5058068;28;20379;-67
2021/03/14 23:26:30;;;;;;;;;;;5.10;99.90;;;;;;5058407;28;19925;-67
2021/03/14 23:28:58;;;;;;;;;;;5.10;99.90;;;;;;5058232;28;20386;-67
2021/03/14 23:31:24;;;;;;;;;;;5.10;99.90;;;;;;5058727;28;19925;-67
2021/03/14 23:33:51;;;;;;;;;;;5.10;99.90;;;;;;5057722;28;19951;-67
2021/03/14 23:36:17;;;;;;;;;;;5.20;99.90;;;;;;5058076;28;19925;-68
2021/03/14 23:38:44;;;;;;;;;;;5.20;99.90;;;;;;5058449;28;19932;-67
2021/03/14 23:41:12;;;;;;;;;;;5.20;99.90;;;;;;5058687;28;19925;-68
2021/03/14 23:43:38;;;;;;;;;;;5.20;99.90;;;;;;5058178;28;19925;-67
2021/03/14 23:46:04;;;;;;;;;;;5.20;99.90;;;;;;5057631;28;19925;-66
2021/03/14 23:48:30;;;;;;;;;;;5.20;99.90;;;;;;5058850;28;19925;-67
